sensor_id;sensor_type;location;lat;lon;timestamp;P1;durP1;ratioP1;P2;durP2;ratioP2
64188;SDS011;50493;50.970;10.082;2022-12-07T00:01:04;10.10;;;5.25;;
64188;SDS011;50493;50.970;10.082;2022-12-07T00:03:31;16.38;;;8.38;;
64188;SDS011;50493;50.970;10.082;2022-12-07T00:05:57;9.73;;;5.40;;
64188;SDS011;50493;50.970;10.082;2022-12-07T00:08:22;11.35;;;5.22;;
64188;SDS011;50493;50.970;10.082;2022-12-07T00:10:48;11.73;;;6.40;;
64188;SDS011;50493;50.970;10.082;2022-12-07T00:13:13;9.27;;;5.10;;
64188;SDS011;50493;50.970;10.082;2022-12-07T00:15:39;10.27;;;5.15;;
64188;SDS011;50493;50.970;10.082;2022-12-07T00:18:04;9.35;;;4.82;;
64188;SDS011;50493;50.970;10.082;2022-12-07T00:20:31;13.75;;;6.97;;
64188;SDS011;50493;50.970;10.082;2022-12-07T00:22:56;15.38;;;7.38;;
64188;SDS011;50493;50.970;10.082;2022-12-07T00:25:22;17.15;;;7.28;;
64188;SDS011;50493;50.970;10.082;2022-12-07T00:27:47;16.17;;;7.60;;
64188;SDS011;50493;50.970;10.082;2022-12-07T00:30:13;16.15;;;7.90;;
64188;SDS011;50493;50.970;10.082;2022-12-07T00:32:39;14.27;;;6.65;;
64188;SDS011;50493;50.970;10.082;2022-12-07T00:35:04;12.02;;;6.22;;
64188;SDS011;50493;50.970;10.082;2022-12-07T00:37:31;15.90;;;7.55;;
64188;SDS011;50493;50.970;10.082;2022-12-07T00:39:57;12.55;;;5.78;;
64188;SDS011;50493;50.970;10.082;2022-12-07T00:42:22;14.75;;;6.97;;
64188;SDS011;50493;50.970;10.082;2022-12-07T00:44:48;11.85;;;6.18;;
64188;SDS011;50493;50.970;10.082;2022-12-07T00:47:13;16.25;;;7.88;;
64188;SDS011;50493;50.970;10.082;2022-12-07T00:49:38;12.30;;;6.00;;
64188;SDS011;50493;50.970;10.082;2022-12-07T00:52:04;12.50;;;5.78;;
64188;SDS011;50493;50.970;10.082;2022-12-07T00:54:31;13.70;;;6.28;;
64188;SDS011;50493;50.970;10.082;2022-12-07T00:56:56;9.73;;;4.97;;
64188;SDS011;50493;50.970;10.082;2022-12-07T00:59:21;12.82;;;5.45;;
64188;SDS011;50493;50.970;10.082;2022-12-07T01:01:47;13.95;;;6.68;;
64188;SDS011;50493;50.970;10.082;2022-12-07T01:04:12;11.95;;;6.05;;
64188;SDS011;50493;50.970;10.082;2022-12-07T01:06:38;18.23;;;8.68;;
64188;SDS011;50493;50.970;10.082;2022-12-07T01:09:03;11.07;;;5.18;;
64188;SDS011;50493;50.970;10.082;2022-12-07T01:11:31;10.90;;;5.40;;
64188;SDS011;50493;50.970;10.082;2022-12-07T01:13:58;9.60;;;5.13;;
64188;SDS011;50493;50.970;10.082;2022-12-07T01:16:25;11.10;;;5.50;;
64188;SDS011;50493;50.970;10.082;2022-12-07T01:18:55;14.88;;;7.57;;
64188;SDS011;50493;50.970;10.082;2022-12-07T01:21:22;19.52;;;8.65;;
64188;SDS011;50493;50.970;10.082;2022-12-07T01:23:49;17.02;;;8.18;;
64188;SDS011;50493;50.970;10.082;2022-12-07T01:26:17;18.33;;;8.75;;
64188;SDS011;50493;50.970;10.082;2022-12-07T01:28:45;10.23;;;5.30;;
64188;SDS011;50493;50.970;10.082;2022-12-07T01:31:11;17.58;;;7.55;;
64188;SDS011;50493;50.970;10.082;2022-12-07T01:33:39;14.70;;;7.18;;
64188;SDS011;50493;50.970;10.082;2022-12-07T01:36:06;11.63;;;6.15;;
64188;SDS011;50493;50.970;10.082;2022-12-07T01:38:33;13.38;;;6.15;;
64188;SDS011;50493;50.970;10.082;2022-12-07T01:40:59;19.88;;;8.98;;
64188;SDS011;50493;50.970;10.082;2022-12-07T01:43:26;16.98;;;8.02;;
64188;SDS011;50493;50.970;10.082;2022-12-07T01:45:55;15.23;;;7.43;;
64188;SDS011;50493;50.970;10.082;2022-12-07T01:48:22;15.30;;;7.15;;
64188;SDS011;50493;50.970;10.082;2022-12-07T01:50:51;18.65;;;8.52;;
64188;SDS011;50493;50.970;10.082;2022-12-07T01:53:20;19.60;;;8.80;;
64188;SDS011;50493;50.970;10.082;2022-12-07T01:55:49;13.10;;;5.95;;
64188;SDS011;50493;50.970;10.082;2022-12-07T01:58:17;22.60;;;10.55;;
64188;SDS011;50493;50.970;10.082;2022-12-07T02:00:43;20.35;;;9.93;;
64188;SDS011;50493;50.970;10.082;2022-12-07T02:03:11;19.98;;;9.35;;
64188;SDS011;50493;50.970;10.082;2022-12-07T02:05:42;22.80;;;9.73;;
64188;SDS011;50493;50.970;10.082;2022-12-07T02:08:09;23.77;;;10.20;;
64188;SDS011;50493;50.970;10.082;2022-12-07T02:10:35;13.07;;;6.18;;
64188;SDS011;50493;50.970;10.082;2022-12-07T02:13:02;23.13;;;10.25;;
64188;SDS011;50493;50.970;10.082;2022-12-07T02:15:33;23.85;;;11.00;;
64188;SDS011;50493;50.970;10.082;2022-12-07T02:18:12;26.13;;;11.50;;
64188;SDS011;50493;50.970;10.082;2022-12-07T02:20:42;20.58;;;9.85;;
64188;SDS011;50493;50.970;10.082;2022-12-07T02:23:40;12.30;;;5.93;;
64188;SDS011;50493;50.970;10.082;2022-12-07T02:26:24;20.20;;;9.70;;
64188;SDS011;50493;50.970;10.082;2022-12-07T02:29:12;22.38;;;10.00;;
64188;SDS011;50493;50.970;10.082;2022-12-07T02:31:44;20.75;;;9.48;;
64188;SDS011;50493;50.970;10.082;2022-12-07T02:34:17;19.27;;;8.25;;
64188;SDS011;50493;50.970;10.082;2022-12-07T02:36:50;13.23;;;6.47;;
64188;SDS011;50493;50.970;10.082;2022-12-07T02:39:23;24.13;;;10.95;;
64188;SDS011;50493;50.970;10.082;2022-12-07T02:41:55;21.77;;;10.70;;
64188;SDS011;50493;50.970;10.082;2022-12-07T02:44:25;19.33;;;9.10;;
64188;SDS011;50493;50.970;10.082;2022-12-07T02:46:53;14.73;;;7.32;;
64188;SDS011;50493;50.970;10.082;2022-12-07T02:49:21;22.73;;;10.35;;
64188;SDS011;50493;50.970;10.082;2022-12-07T02:51:49;20.33;;;9.80;;
64188;SDS011;50493;50.970;10.082;2022-12-07T02:54:16;20.70;;;10.20;;
64188;SDS011;50493;50.970;10.082;2022-12-07T02:56:44;23.55;;;10.20;;
64188;SDS011;50493;50.970;10.082;2022-12-07T02:59:16;16.50;;;8.30;;
64188;SDS011;50493;50.970;10.082;2022-12-07T03:01:50;23.15;;;9.85;;
64188;SDS011;50493;50.970;10.082;2022-12-07T03:04:29;23.40;;;11.05;;
64188;SDS011;50493;50.970;10.082;2022-12-07T03:07:04;23.23;;;11.02;;
64188;SDS011;50493;50.970;10.082;2022-12-07T03:09:37;18.20;;;8.90;;
64188;SDS011;50493;50.970;10.082;2022-12-07T03:12:10;14.50;;;7.10;;
64188;SDS011;50493;50.970;10.082;2022-12-07T03:14:40;23.65;;;10.40;;
64188;SDS011;50493;50.970;10.082;2022-12-07T03:17:15;17.42;;;7.80;;
64188;SDS011;50493;50.970;10.082;2022-12-07T03:19:44;23.58;;;9.88;;
64188;SDS011;50493;50.970;10.082;2022-12-07T03:22:12;25.58;;;9.88;;
64188;SDS011;50493;50.970;10.082;2022-12-07T03:24:40;18.98;;;9.07;;
64188;SDS011;50493;50.970;10.082;2022-12-07T03:27:11;23.42;;;10.27;;
64188;SDS011;50493;50.970;10.082;2022-12-07T03:29:42;17.85;;;8.13;;
64188;SDS011;50493;50.970;10.082;2022-12-07T03:32:12;19.55;;;8.95;;
64188;SDS011;50493;50.970;10.082;2022-12-07T03:34:46;20.08;;;8.80;;
64188;SDS011;50493;50.970;10.082;2022-12-07T03:37:15;22.13;;;9.63;;
64188;SDS011;50493;50.970;10.082;2022-12-07T03:39:45;18.95;;;9.32;;
64188;SDS011;50493;50.970;10.082;2022-12-07T03:42:15;22.77;;;10.50;;
64188;SDS011;50493;50.970;10.082;2022-12-07T03:44:40;17.65;;;8.75;;
64188;SDS011;50493;50.970;10.082;2022-12-07T03:47:09;23.73;;;9.43;;
64188;SDS011;50493;50.970;10.082;2022-12-07T03:49:41;16.88;;;8.35;;
64188;SDS011;50493;50.970;10.082;2022-12-07T03:52:12;15.68;;;6.80;;
64188;SDS011;50493;50.970;10.082;2022-12-07T03:54:44;17.15;;;7.97;;
64188;SDS011;50493;50.970;10.082;2022-12-07T03:57:14;18.73;;;9.00;;
64188;SDS011;50493;50.970;10.082;2022-12-07T03:59:41;18.60;;;8.48;;
64188;SDS011;50493;50.970;10.082;2022-12-07T04:02:07;17.58;;;8.35;;
64188;SDS011;50493;50.970;10.082;2022-12-07T04:04:37;18.48;;;7.57;;
64188;SDS011;50493;50.970;10.082;2022-12-07T04:07:05;14.77;;;7.25;;
64188;SDS011;50493;50.970;10.082;2022-12-07T04:09:30;19.95;;;9.25;;
64188;SDS011;50493;50.970;10.082;2022-12-07T04:11:56;21.65;;;10.57;;
64188;SDS011;50493;50.970;10.082;2022-12-07T04:14:21;16.25;;;7.68;;
64188;SDS011;50493;50.970;10.082;2022-12-07T04:16:47;20.73;;;10.00;;
64188;SDS011;50493;50.970;10.082;2022-12-07T04:19:14;16.95;;;7.95;;
64188;SDS011;50493;50.970;10.082;2022-12-07T04:21:40;17.25;;;8.35;;
64188;SDS011;50493;50.970;10.082;2022-12-07T04:24:07;15.77;;;7.80;;
64188;SDS011;50493;50.970;10.082;2022-12-07T04:26:33;17.40;;;7.57;;
64188;SDS011;50493;50.970;10.082;2022-12-07T04:28:59;18.73;;;8.68;;
64188;SDS011;50493;50.970;10.082;2022-12-07T04:31:24;20.67;;;9.40;;
64188;SDS011;50493;50.970;10.082;2022-12-07T04:33:50;17.15;;;7.97;;
64188;SDS011;50493;50.970;10.082;2022-12-07T04:36:15;14.30;;;6.82;;
64188;SDS011;50493;50.970;10.082;2022-12-07T04:38:41;21.65;;;8.73;;
64188;SDS011;50493;50.970;10.082;2022-12-07T04:41:08;19.08;;;8.98;;
64188;SDS011;50493;50.970;10.082;2022-12-07T04:43:34;15.93;;;7.78;;
64188;SDS011;50493;50.970;10.082;2022-12-07T04:46:00;15.65;;;7.40;;
64188;SDS011;50493;50.970;10.082;2022-12-07T04:48:26;15.57;;;7.63;;
64188;SDS011;50493;50.970;10.082;2022-12-07T04:50:51;16.02;;;7.90;;
64188;SDS011;50493;50.970;10.082;2022-12-07T04:53:17;15.98;;;7.68;;
64188;SDS011;50493;50.970;10.082;2022-12-07T04:55:43;18.35;;;9.32;;
64188;SDS011;50493;50.970;10.082;2022-12-07T04:58:10;17.40;;;8.23;;
64188;SDS011;50493;50.970;10.082;2022-12-07T05:00:36;16.33;;;7.63;;
64188;SDS011;50493;50.970;10.082;2022-12-07T05:03:01;19.20;;;8.80;;
64188;SDS011;50493;50.970;10.082;2022-12-07T05:05:27;18.98;;;8.70;;
64188;SDS011;50493;50.970;10.082;2022-12-07T05:07:52;16.92;;;7.65;;
64188;SDS011;50493;50.970;10.082;2022-12-07T05:10:18;22.45;;;9.57;;
64188;SDS011;50493;50.970;10.082;2022-12-07T05:12:43;18.00;;;8.70;;
64188;SDS011;50493;50.970;10.082;2022-12-07T05:15:10;16.30;;;8.10;;
64188;SDS011;50493;50.970;10.082;2022-12-07T05:17:36;17.00;;;8.45;;
64188;SDS011;50493;50.970;10.082;2022-12-07T05:20:01;15.60;;;7.63;;
64188;SDS011;50493;50.970;10.082;2022-12-07T05:22:27;16.73;;;8.18;;
64188;SDS011;50493;50.970;10.082;2022-12-07T05:24:53;20.95;;;9.18;;
64188;SDS011;50493;50.970;10.082;2022-12-07T05:27:18;15.18;;;7.28;;
64188;SDS011;50493;50.970;10.082;2022-12-07T05:29:44;18.20;;;8.40;;
64188;SDS011;50493;50.970;10.082;2022-12-07T05:32:10;20.52;;;10.27;;
64188;SDS011;50493;50.970;10.082;2022-12-07T05:34:36;17.98;;;8.00;;
64188;SDS011;50493;50.970;10.082;2022-12-07T05:37:02;20.52;;;9.10;;
64188;SDS011;50493;50.970;10.082;2022-12-07T05:39:27;15.95;;;8.02;;
64188;SDS011;50493;50.970;10.082;2022-12-07T05:41:52;17.35;;;8.93;;
64188;SDS011;50493;50.970;10.082;2022-12-07T05:44:36;16.85;;;7.75;;
64188;SDS011;50493;50.970;10.082;2022-12-07T05:47:02;16.70;;;7.72;;
64188;SDS011;50493;50.970;10.082;2022-12-07T05:49:29;17.00;;;7.85;;
64188;SDS011;50493;50.970;10.082;2022-12-07T05:51:54;16.50;;;8.27;;
64188;SDS011;50493;50.970;10.082;2022-12-07T05:54:20;17.95;;;8.05;;
64188;SDS011;50493;50.970;10.082;2022-12-07T05:56:45;16.20;;;7.72;;
64188;SDS011;50493;50.970;10.082;2022-12-07T05:59:10;14.32;;;7.68;;
64188;SDS011;50493;50.970;10.082;2022-12-07T06:01:48;16.58;;;8.02;;
64188;SDS011;50493;50.970;10.082;2022-12-07T06:04:14;18.50;;;8.45;;
64188;SDS011;50493;50.970;10.082;2022-12-07T06:06:41;15.32;;;7.55;;
64188;SDS011;50493;50.970;10.082;2022-12-07T06:09:06;15.90;;;7.75;;
64188;SDS011;50493;50.970;10.082;2022-12-07T06:11:32;19.73;;;8.63;;
64188;SDS011;50493;50.970;10.082;2022-12-07T06:14:16;21.40;;;10.20;;
64188;SDS011;50493;50.970;10.082;2022-12-07T06:16:42;17.13;;;8.80;;
64188;SDS011;50493;50.970;10.082;2022-12-07T06:19:07;18.50;;;8.02;;
64188;SDS011;50493;50.970;10.082;2022-12-07T06:21:33;19.85;;;9.40;;
64188;SDS011;50493;50.970;10.082;2022-12-07T06:24:00;18.98;;;8.85;;
64188;SDS011;50493;50.970;10.082;2022-12-07T06:26:25;18.90;;;8.82;;
64188;SDS011;50493;50.970;10.082;2022-12-07T06:28:51;16.52;;;8.05;;
64188;SDS011;50493;50.970;10.082;2022-12-07T06:31:16;17.98;;;7.90;;
64188;SDS011;50493;50.970;10.082;2022-12-07T06:33:42;17.27;;;6.88;;
64188;SDS011;50493;50.970;10.082;2022-12-07T06:36:08;17.80;;;8.88;;
64188;SDS011;50493;50.970;10.082;2022-12-07T06:38:34;18.25;;;8.55;;
64188;SDS011;50493;50.970;10.082;2022-12-07T06:41:01;18.90;;;9.30;;
64188;SDS011;50493;50.970;10.082;2022-12-07T06:43:26;21.00;;;9.45;;
64188;SDS011;50493;50.970;10.082;2022-12-07T06:45:52;17.27;;;8.38;;
64188;SDS011;50493;50.970;10.082;2022-12-07T06:48:17;16.30;;;8.50;;
64188;SDS011;50493;50.970;10.082;2022-12-07T06:50:43;18.05;;;8.35;;
64188;SDS011;50493;50.970;10.082;2022-12-07T06:53:09;16.42;;;7.88;;
64188;SDS011;50493;50.970;10.082;2022-12-07T06:55:35;17.27;;;8.57;;
64188;SDS011;50493;50.970;10.082;2022-12-07T06:58:02;15.07;;;7.00;;
64188;SDS011;50493;50.970;10.082;2022-12-07T07:00:27;17.42;;;8.05;;
64188;SDS011;50493;50.970;10.082;2022-12-07T07:02:53;18.38;;;8.60;;
64188;SDS011;50493;50.970;10.082;2022-12-07T07:05:19;18.70;;;9.52;;
64188;SDS011;50493;50.970;10.082;2022-12-07T07:07:46;17.70;;;8.38;;
64188;SDS011;50493;50.970;10.082;2022-12-07T07:10:12;18.45;;;8.50;;
64188;SDS011;50493;50.970;10.082;2022-12-07T07:12:38;15.60;;;7.32;;
64188;SDS011;50493;50.970;10.082;2022-12-07T07:15:05;18.70;;;9.63;;
64188;SDS011;50493;50.970;10.082;2022-12-07T07:17:32;20.08;;;9.07;;
64188;SDS011;50493;50.970;10.082;2022-12-07T07:19:57;22.15;;;10.30;;
64188;SDS011;50493;50.970;10.082;2022-12-07T07:22:22;22.10;;;10.13;;
64188;SDS011;50493;50.970;10.082;2022-12-07T07:24:48;20.83;;;10.48;;
64188;SDS011;50493;50.970;10.082;2022-12-07T07:27:13;18.23;;;9.13;;
64188;SDS011;50493;50.970;10.082;2022-12-07T07:29:39;17.90;;;8.48;;
64188;SDS011;50493;50.970;10.082;2022-12-07T07:32:05;17.88;;;8.30;;
64188;SDS011;50493;50.970;10.082;2022-12-07T07:34:32;15.65;;;7.80;;
64188;SDS011;50493;50.970;10.082;2022-12-07T07:36:58;15.95;;;7.82;;
64188;SDS011;50493;50.970;10.082;2022-12-07T07:39:23;14.85;;;7.55;;
64188;SDS011;50493;50.970;10.082;2022-12-07T07:41:49;14.10;;;7.13;;
64188;SDS011;50493;50.970;10.082;2022-12-07T07:44:14;14.73;;;6.97;;
64188;SDS011;50493;50.970;10.082;2022-12-07T07:46:39;14.23;;;7.30;;
64188;SDS011;50493;50.970;10.082;2022-12-07T07:49:06;13.63;;;7.15;;
64188;SDS011;50493;50.970;10.082;2022-12-07T07:51:32;14.95;;;6.85;;
64188;SDS011;50493;50.970;10.082;2022-12-07T07:53:57;14.30;;;6.95;;
64188;SDS011;50493;50.970;10.082;2022-12-07T07:56:22;14.05;;;6.57;;
64188;SDS011;50493;50.970;10.082;2022-12-07T07:58:51;13.98;;;6.82;;
64188;SDS011;50493;50.970;10.082;2022-12-07T08:01:16;14.70;;;7.35;;
64188;SDS011;50493;50.970;10.082;2022-12-07T08:03:44;15.48;;;7.60;;
64188;SDS011;50493;50.970;10.082;2022-12-07T08:06:11;14.57;;;7.30;;
64188;SDS011;50493;50.970;10.082;2022-12-07T08:08:36;13.90;;;6.72;;
64188;SDS011;50493;50.970;10.082;2022-12-07T08:11:04;13.70;;;6.70;;
64188;SDS011;50493;50.970;10.082;2022-12-07T08:13:29;13.68;;;6.05;;
64188;SDS011;50493;50.970;10.082;2022-12-07T08:15:55;12.18;;;5.95;;
64188;SDS011;50493;50.970;10.082;2022-12-07T08:18:20;13.70;;;6.47;;
64188;SDS011;50493;50.970;10.082;2022-12-07T08:20:46;10.50;;;5.82;;
64188;SDS011;50493;50.970;10.082;2022-12-07T08:23:12;12.40;;;6.40;;
64188;SDS011;50493;50.970;10.082;2022-12-07T08:25:38;12.75;;;5.97;;
64188;SDS011;50493;50.970;10.082;2022-12-07T08:28:04;15.10;;;6.75;;
64188;SDS011;50493;50.970;10.082;2022-12-07T08:30:29;14.75;;;6.10;;
64188;SDS011;50493;50.970;10.082;2022-12-07T08:32:55;12.40;;;5.85;;
64188;SDS011;50493;50.970;10.082;2022-12-07T08:35:21;15.90;;;6.78;;
64188;SDS011;50493;50.970;10.082;2022-12-07T08:37:47;14.20;;;6.50;;
64188;SDS011;50493;50.970;10.082;2022-12-07T08:40:14;13.43;;;6.53;;
64188;SDS011;50493;50.970;10.082;2022-12-07T08:42:41;14.05;;;6.13;;
64188;SDS011;50493;50.970;10.082;2022-12-07T08:45:07;11.70;;;5.93;;
64188;SDS011;50493;50.970;10.082;2022-12-07T08:47:35;11.13;;;5.80;;
64188;SDS011;50493;50.970;10.082;2022-12-07T08:50:04;9.82;;;4.82;;
64188;SDS011;50493;50.970;10.082;2022-12-07T08:52:32;10.27;;;5.53;;
64188;SDS011;50493;50.970;10.082;2022-12-07T08:54:59;12.05;;;5.90;;
64188;SDS011;50493;50.970;10.082;2022-12-07T08:57:27;11.88;;;5.82;;
64188;SDS011;50493;50.970;10.082;2022-12-07T08:59:53;15.60;;;6.30;;
64188;SDS011;50493;50.970;10.082;2022-12-07T09:02:19;12.45;;;5.80;;
64188;SDS011;50493;50.970;10.082;2022-12-07T09:04:44;11.55;;;5.80;;
64188;SDS011;50493;50.970;10.082;2022-12-07T09:07:10;10.38;;;4.90;;
64188;SDS011;50493;50.970;10.082;2022-12-07T09:09:35;11.75;;;5.88;;
64188;SDS011;50493;50.970;10.082;2022-12-07T09:12:01;12.27;;;5.65;;
64188;SDS011;50493;50.970;10.082;2022-12-07T09:14:28;10.48;;;5.57;;
64188;SDS011;50493;50.970;10.082;2022-12-07T09:16:53;12.43;;;5.40;;
64188;SDS011;50493;50.970;10.082;2022-12-07T09:19:19;10.30;;;5.65;;
64188;SDS011;50493;50.970;10.082;2022-12-07T09:21:44;13.55;;;6.10;;
64188;SDS011;50493;50.970;10.082;2022-12-07T09:24:11;11.20;;;6.03;;
64188;SDS011;50493;50.970;10.082;2022-12-07T09:26:36;16.83;;;6.00;;
64188;SDS011;50493;50.970;10.082;2022-12-07T09:29:04;13.32;;;5.68;;
64188;SDS011;50493;50.970;10.082;2022-12-07T09:31:31;10.85;;;5.75;;
64188;SDS011;50493;50.970;10.082;2022-12-07T09:33:57;9.55;;;5.10;;
64188;SDS011;50493;50.970;10.082;2022-12-07T09:36:23;14.23;;;6.18;;
64188;SDS011;50493;50.970;10.082;2022-12-07T09:38:49;15.82;;;6.55;;
64188;SDS011;50493;50.970;10.082;2022-12-07T09:41:14;12.02;;;5.13;;
64188;SDS011;50493;50.970;10.082;2022-12-07T09:43:40;11.27;;;5.63;;
64188;SDS011;50493;50.970;10.082;2022-12-07T09:46:08;11.32;;;5.30;;
64188;SDS011;50493;50.970;10.082;2022-12-07T09:48:39;10.65;;;5.00;;
64188;SDS011;50493;50.970;10.082;2022-12-07T09:51:11;11.27;;;5.00;;
64188;SDS011;50493;50.970;10.082;2022-12-07T09:53:39;10.75;;;5.18;;
64188;SDS011;50493;50.970;10.082;2022-12-07T09:56:05;10.02;;;5.00;;
64188;SDS011;50493;50.970;10.082;2022-12-07T09:58:31;10.90;;;5.22;;
64188;SDS011;50493;50.970;10.082;2022-12-07T10:00:59;11.60;;;5.22;;
64188;SDS011;50493;50.970;10.082;2022-12-07T10:03:26;9.20;;;4.90;;
64188;SDS011;50493;50.970;10.082;2022-12-07T10:05:54;10.18;;;5.47;;
64188;SDS011;50493;50.970;10.082;2022-12-07T10:08:22;11.93;;;5.15;;
64188;SDS011;50493;50.970;10.082;2022-12-07T10:10:49;11.73;;;5.85;;
64188;SDS011;50493;50.970;10.082;2022-12-07T10:13:18;10.20;;;5.57;;
64188;SDS011;50493;50.970;10.082;2022-12-07T10:15:47;10.02;;;5.00;;
64188;SDS011;50493;50.970;10.082;2022-12-07T10:18:24;10.50;;;5.25;;
64188;SDS011;50493;50.970;10.082;2022-12-07T10:21:01;8.73;;;4.53;;
64188;SDS011;50493;50.970;10.082;2022-12-07T10:23:29;10.35;;;5.03;;
64188;SDS011;50493;50.970;10.082;2022-12-07T10:25:55;10.77;;;5.25;;
64188;SDS011;50493;50.970;10.082;2022-12-07T10:28:21;10.50;;;5.45;;
64188;SDS011;50493;50.970;10.082;2022-12-07T10:30:48;9.38;;;4.95;;
64188;SDS011;50493;50.970;10.082;2022-12-07T10:33:28;9.38;;;4.80;;
64188;SDS011;50493;50.970;10.082;2022-12-07T10:35:55;9.85;;;4.97;;
64188;SDS011;50493;50.970;10.082;2022-12-07T10:38:22;9.48;;;4.68;;
64188;SDS011;50493;50.970;10.082;2022-12-07T10:40:49;8.98;;;4.90;;
64188;SDS011;50493;50.970;10.082;2022-12-07T10:43:28;9.57;;;4.38;;
64188;SDS011;50493;50.970;10.082;2022-12-07T10:46:02;8.70;;;3.85;;
64188;SDS011;50493;50.970;10.082;2022-12-07T10:48:47;9.15;;;4.65;;
64188;SDS011;50493;50.970;10.082;2022-12-07T10:51:20;8.68;;;4.80;;
64188;SDS011;50493;50.970;10.082;2022-12-07T10:53:56;10.43;;;4.80;;
64188;SDS011;50493;50.970;10.082;2022-12-07T10:56:35;9.90;;;4.50;;
64188;SDS011;50493;50.970;10.082;2022-12-07T10:59:28;10.77;;;5.00;;
64188;SDS011;50493;50.970;10.082;2022-12-07T11:04:43;10.70;;;4.82;;
64188;SDS011;50493;50.970;10.082;2022-12-07T11:07:21;9.88;;;4.32;;
64188;SDS011;50493;50.970;10.082;2022-12-07T11:09:59;7.45;;;4.10;;
64188;SDS011;50493;50.970;10.082;2022-12-07T11:12:34;8.48;;;4.15;;
64188;SDS011;50493;50.970;10.082;2022-12-07T11:15:12;9.55;;;4.78;;
64188;SDS011;50493;50.970;10.082;2022-12-07T11:17:43;8.77;;;4.30;;
64188;SDS011;50493;50.970;10.082;2022-12-07T11:20:16;9.48;;;4.45;;
64188;SDS011;50493;50.970;10.082;2022-12-07T11:22:55;6.75;;;3.88;;
64188;SDS011;50493;50.970;10.082;2022-12-07T11:25:30;7.25;;;3.97;;
64188;SDS011;50493;50.970;10.082;2022-12-07T11:28:03;7.75;;;3.58;;
64188;SDS011;50493;50.970;10.082;2022-12-07T11:30:41;8.15;;;3.88;;
64188;SDS011;50493;50.970;10.082;2022-12-07T11:33:15;8.73;;;4.00;;
64188;SDS011;50493;50.970;10.082;2022-12-07T11:35:47;8.73;;;3.67;;
64188;SDS011;50493;50.970;10.082;2022-12-07T11:38:26;8.05;;;3.60;;
64188;SDS011;50493;50.970;10.082;2022-12-07T11:41:01;5.10;;;2.65;;
64188;SDS011;50493;50.970;10.082;2022-12-07T11:43:42;5.13;;;2.08;;
64188;SDS011;50493;50.970;10.082;2022-12-07T11:46:18;8.27;;;3.70;;
64188;SDS011;50493;50.970;10.082;2022-12-07T11:48:50;7.53;;;3.30;;
64188;SDS011;50493;50.970;10.082;2022-12-07T11:51:20;6.68;;;3.15;;
64188;SDS011;50493;50.970;10.082;2022-12-07T11:53:48;6.35;;;2.58;;
64188;SDS011;50493;50.970;10.082;2022-12-07T11:56:19;7.25;;;3.38;;
64188;SDS011;50493;50.970;10.082;2022-12-07T11:58:48;6.68;;;2.85;;
64188;SDS011;50493;50.970;10.082;2022-12-07T12:01:25;8.02;;;3.70;;
64188;SDS011;50493;50.970;10.082;2022-12-07T12:04:01;8.45;;;3.20;;
64188;SDS011;50493;50.970;10.082;2022-12-07T12:06:32;7.88;;;3.80;;
64188;SDS011;50493;50.970;10.082;2022-12-07T12:09:01;5.85;;;3.45;;
64188;SDS011;50493;50.970;10.082;2022-12-07T12:11:36;4.95;;;2.42;;
64188;SDS011;50493;50.970;10.082;2022-12-07T12:14:18;5.88;;;2.22;;
64188;SDS011;50493;50.970;10.082;2022-12-07T12:17:13;3.72;;;2.10;;
64188;SDS011;50493;50.970;10.082;2022-12-07T12:19:57;6.32;;;3.58;;
64188;SDS011;50493;50.970;10.082;2022-12-07T12:24:57;5.75;;;2.95;;
64188;SDS011;50493;50.970;10.082;2022-12-07T12:27:26;5.88;;;3.00;;
64188;SDS011;50493;50.970;10.082;2022-12-07T12:29:55;6.97;;;3.15;;
64188;SDS011;50493;50.970;10.082;2022-12-07T12:32:24;8.52;;;3.00;;
64188;SDS011;50493;50.970;10.082;2022-12-07T12:35:17;7.45;;;3.22;;
64188;SDS011;50493;50.970;10.082;2022-12-07T12:37:46;7.22;;;3.13;;
64188;SDS011;50493;50.970;10.082;2022-12-07T12:58:25;5.13;;;2.70;;
64188;SDS011;50493;50.970;10.082;2022-12-07T13:04:14;7.03;;;2.78;;
64188;SDS011;50493;50.970;10.082;2022-12-07T13:06:46;7.00;;;2.70;;
64188;SDS011;50493;50.970;10.082;2022-12-07T13:09:18;8.30;;;3.00;;
64188;SDS011;50493;50.970;10.082;2022-12-07T13:11:48;5.85;;;2.80;;
64188;SDS011;50493;50.970;10.082;2022-12-07T13:17:07;4.97;;;2.67;;
64188;SDS011;50493;50.970;10.082;2022-12-07T13:22:32;5.47;;;2.25;;
64188;SDS011;50493;50.970;10.082;2022-12-07T13:25:11;4.97;;;2.03;;
64188;SDS011;50493;50.970;10.082;2022-12-07T13:27:39;3.80;;;2.25;;
64188;SDS011;50493;50.970;10.082;2022-12-07T13:30:09;4.55;;;2.47;;
64188;SDS011;50493;50.970;10.082;2022-12-07T13:32:40;5.82;;;2.70;;
64188;SDS011;50493;50.970;10.082;2022-12-07T13:37:56;5.50;;;2.75;;
64188;SDS011;50493;50.970;10.082;2022-12-07T13:40:23;6.13;;;2.58;;
64188;SDS011;50493;50.970;10.082;2022-12-07T13:42:56;6.70;;;2.50;;
64188;SDS011;50493;50.970;10.082;2022-12-07T13:45:23;7.03;;;2.90;;
64188;SDS011;50493;50.970;10.082;2022-12-07T13:48:10;4.90;;;2.60;;
64188;SDS011;50493;50.970;10.082;2022-12-07T13:50:41;5.65;;;2.38;;
64188;SDS011;50493;50.970;10.082;2022-12-07T13:53:07;7.00;;;3.00;;
64188;SDS011;50493;50.970;10.082;2022-12-07T13:55:39;5.35;;;2.50;;
64188;SDS011;50493;50.970;10.082;2022-12-07T13:58:10;7.05;;;2.63;;
64188;SDS011;50493;50.970;10.082;2022-12-07T14:00:36;5.85;;;3.00;;
64188;SDS011;50493;50.970;10.082;2022-12-07T14:03:02;4.72;;;2.58;;
64188;SDS011;50493;50.970;10.082;2022-12-07T14:05:30;5.35;;;2.58;;
64188;SDS011;50493;50.970;10.082;2022-12-07T14:07:57;6.18;;;2.95;;
64188;SDS011;50493;50.970;10.082;2022-12-07T14:10:25;5.72;;;2.78;;
64188;SDS011;50493;50.970;10.082;2022-12-07T14:12:53;5.55;;;2.92;;
64188;SDS011;50493;50.970;10.082;2022-12-07T14:15:19;4.88;;;2.58;;
64188;SDS011;50493;50.970;10.082;2022-12-07T14:17:51;5.93;;;3.10;;
64188;SDS011;50493;50.970;10.082;2022-12-07T14:23:02;5.90;;;2.97;;
64188;SDS011;50493;50.970;10.082;2022-12-07T14:25:34;7.90;;;2.80;;
64188;SDS011;50493;50.970;10.082;2022-12-07T14:28:23;6.90;;;2.70;;
64188;SDS011;50493;50.970;10.082;2022-12-07T14:30:51;6.13;;;2.80;;
64188;SDS011;50493;50.970;10.082;2022-12-07T14:33:16;5.32;;;2.85;;
64188;SDS011;50493;50.970;10.082;2022-12-07T14:35:43;8.10;;;3.20;;
64188;SDS011;50493;50.970;10.082;2022-12-07T14:38:08;7.53;;;2.80;;
64188;SDS011;50493;50.970;10.082;2022-12-07T14:40:34;8.05;;;3.22;;
64188;SDS011;50493;50.970;10.082;2022-12-07T14:43:00;8.05;;;3.15;;
64188;SDS011;50493;50.970;10.082;2022-12-07T14:45:29;6.35;;;3.10;;
64188;SDS011;50493;50.970;10.082;2022-12-07T14:47:55;8.63;;;3.88;;
64188;SDS011;50493;50.970;10.082;2022-12-07T14:50:21;11.40;;;3.67;;
64188;SDS011;50493;50.970;10.082;2022-12-07T14:52:48;9.27;;;3.80;;
64188;SDS011;50493;50.970;10.082;2022-12-07T14:55:18;9.63;;;3.72;;
64188;SDS011;50493;50.970;10.082;2022-12-07T14:57:47;12.07;;;5.82;;
64188;SDS011;50493;50.970;10.082;2022-12-07T15:00:13;29.80;;;12.57;;
64188;SDS011;50493;50.970;10.082;2022-12-07T15:02:41;14.63;;;6.93;;
64188;SDS011;50493;50.970;10.082;2022-12-07T15:05:07;7.93;;;4.30;;
64188;SDS011;50493;50.970;10.082;2022-12-07T15:07:33;9.60;;;4.10;;
64188;SDS011;50493;50.970;10.082;2022-12-07T15:09:58;8.50;;;4.00;;